Time;durP1;ratioP1;P1;durP2;ratioP2;P2;SDS_P1;SDS_P2;PMS_P1;PMS_P2;Temp;Humidity;BMP_temperature;BMP_pressure;BME280_temperature;BME280_humidity;BME280_pressure;Samples;Min_cycle;Max_cycle;Signal;HPM_P1;HPM_P2
2021/08/22 00:01:17;;;;;;;8.15;5.60;;;25.20;64.50;;;;;;5050631;28;20060;-60
2021/08/22 00:03:44;;;;;;;8.27;5.57;;;25.20;64.60;;;;;;5050600;28;20059;-60
2021/08/22 00:06:11;;;;;;;8.27;5.18;;;25.20;65.40;;;;;;5047814;28;20481;-61
2021/08/22 00:08:42;;;;;;;6.93;5.22;;;25.10;65.60;;;;;;5039148;28;20543;-61
2021/08/22 00:11:08;;;;;;;9.27;5.95;;;25.10;65.70;;;;;;5039078;28;20029;-61
2021/08/22 00:13:35;;;;;;;6.47;5.05;;;25.10;65.90;;;;;;5040465;28;20037;-61
2021/08/22 00:16:02;;;;;;;6.40;5.13;;;25.10;66.00;;;;;;5041781;28;20040;-61
2021/08/22 00:18:29;;;;;;;7.60;4.93;;;25.10;66.30;;;;;;5037655;28;20041;-61
2021/08/22 00:20:56;;;;;;;6.88;5.03;;;25.10;66.40;;;;;;5040971;28;20030;-61
2021/08/22 00:23:22;;;;;;;8.20;5.43;;;25.00;66.50;;;;;;5039402;28;20048;-62
2021/08/22 00:25:49;;;;;;;6.68;4.97;;;25.00;66.70;;;;;;5040445;28;20041;-61
2021/08/22 00:28:16;;;;;;;8.48;5.28;;;25.00;67.10;;;;;;5042069;28;20398;-61
2021/08/22 00:30:43;;;;;;;8.93;5.75;;;24.90;67.30;;;;;;5043571;28;20048;-60
2021/08/22 00:33:09;;;;;;;7.28;5.65;;;24.90;67.30;;;;;;5044305;28;20040;-61
2021/08/22 00:35:36;;;;;;;7.00;5.68;;;24.90;67.40;;;;;;5044356;28;20050;-61
2021/08/22 00:38:02;;;;;;;9.90;5.10;;;24.80;67.50;;;;;;5043027;28;20064;-60
2021/08/22 00:40:29;;;;;;;7.95;5.97;;;24.80;67.60;;;;;;5043336;28;20044;-61
2021/08/22 00:42:55;;;;;;;7.55;5.40;;;24.80;67.90;;;;;;5044237;28;20033;-61
2021/08/22 00:45:22;;;;;;;7.60;5.65;;;24.70;68.30;;;;;;5045377;28;20030;-61
2021/08/22 00:47:48;;;;;;;6.70;5.78;;;24.70;68.70;;;;;;5043539;28;20397;-60
2021/08/22 00:50:18;;;;;;;6.38;5.30;;;24.70;69.00;;;;;;5043547;28;20036;-61
2021/08/22 00:52:50;;;;;;;8.25;5.28;;;24.60;69.20;;;;;;5044958;28;20381;-62
2021/08/22 00:55:17;;;;;;;8.52;5.55;;;24.60;69.50;;;;;;5044215;28;20026;-61
2021/08/22 00:57:44;;;;;;;6.47;5.30;;;24.60;69.70;;;;;;5055679;28;20041;-60
2021/08/22 01:00:13;;;;;;;10.68;6.55;;;24.50;69.90;;;;;;5055033;28;20025;-60
2021/08/22 01:03:06;;;;;;;6.60;5.25;;;24.40;70.20;;;;;;5055135;28;20041;-60
2021/08/22 01:06:00;;;;;;;7.45;6.18;;;24.40;70.60;;;;;;5052292;28;20041;-60
2021/08/22 01:08:30;;;;;;;14.23;6.57;;;24.30;70.40;;;;;;5053963;28;20037;-60
2021/08/22 01:11:04;;;;;;;7.32;5.30;;;24.30;70.80;;;;;;5054892;28;20052;-61
2021/08/22 01:13:37;;;;;;;5.72;4.75;;;24.30;70.80;;;;;;5055109;28;20028;-61
2021/08/22 01:16:07;;;;;;;9.20;5.50;;;24.20;70.70;;;;;;5053367;28;20048;-60
2021/08/22 01:18:35;;;;;;;7.10;5.47;;;24.30;70.80;;;;;;5055035;28;20044;-60
2021/08/22 01:21:18;;;;;;;10.45;6.10;;;24.20;71.00;;;;;;5054782;28;20500;-60
2021/08/22 01:23:53;;;;;;;7.93;5.50;;;24.20;71.30;;;;;;5054795;28;20041;-61
2021/08/22 01:26:26;;;;;;;10.25;6.15;;;24.20;71.60;;;;;;5054880;28;20033;-62
2021/08/22 01:28:54;;;;;;;9.13;6.20;;;24.10;71.70;;;;;;5054705;28;20052;-61
2021/08/22 01:31:28;;;;;;;8.73;5.78;;;24.10;71.70;;;;;;5053321;28;20029;-61
2021/08/22 01:33:57;;;;;;;7.47;6.15;;;24.00;71.90;;;;;;5054870;28;20041;-61
2021/08/22 01:36:25;;;;;;;8.70;5.88;;;24.00;71.90;;;;;;5052677;28;20053;-61
2021/08/22 01:38:53;;;;;;;10.15;6.38;;;24.00;71.90;;;;;;5054052;28;20029;-61
2021/08/22 01:41:23;;;;;;;6.88;5.65;;;24.00;71.90;;;;;;5053802;28;20056;-61
2021/08/22 01:43:54;;;;;;;6.63;5.93;;;24.00;72.10;;;;;;5054132;28;20389;-61
2021/08/22 01:46:23;;;;;;;7.32;5.38;;;24.00;72.10;;;;;;5053945;28;20049;-61
2021/08/22 01:48:51;;;;;;;6.43;5.55;;;23.90;72.30;;;;;;5054179;28;20047;-61
2021/08/22 01:51:18;;;;;;;7.05;5.70;;;23.90;72.40;;;;;;5054619;28;20028;-60
2021/08/22 01:53:45;;;;;;;7.82;5.75;;;23.90;72.30;;;;;;5054256;28;20028;-60
2021/08/22 01:56:11;;;;;;;8.00;6.38;;;23.90;72.70;;;;;;5036648;28;20044;-60
2021/08/22 01:58:38;;;;;;;6.55;5.40;;;23.80;72.60;;;;;;5053836;28;20041;-61
2021/08/22 02:01:04;;;;;;;7.50;5.32;;;23.80;72.70;;;;;;5053938;28;20048;-61
2021/08/22 02:03:48;;;;;;;6.55;5.47;;;23.80;72.90;;;;;;5053160;28;20045;-61
2021/08/22 02:06:23;;;;;;;6.70;5.65;;;23.80;73.10;;;;;;5054355;28;20029;-61
2021/08/22 02:08:59;;;;;;;6.72;5.90;;;23.70;73.00;;;;;;5052710;28;20373;-61
2021/08/22 02:11:32;;;;;;;9.70;6.25;;;23.70;73.10;;;;;;5053525;28;20045;-62
2021/08/22 02:13:59;;;;;;;8.27;6.15;;;23.70;73.00;;;;;;5052493;28;20036;-61
2021/08/22 02:16:29;;;;;;;6.90;5.43;;;23.70;73.40;;;;;;5053954;28;20047;-62
2021/08/22 02:18:57;;;;;;;7.27;5.40;;;23.70;73.50;;;;;;5053914;28;20033;-62
2021/08/22 02:21:25;;;;;;;8.30;5.88;;;23.70;73.50;;;;;;5053853;28;20381;-62
2021/08/22 02:23:55;;;;;;;8.02;5.93;;;23.70;73.50;;;;;;5053538;28;20112;-61
2021/08/22 02:26:24;;;;;;;6.88;5.63;;;23.60;73.90;;;;;;5053436;28;20036;-61
2021/08/22 02:28:53;;;;;;;8.18;5.70;;;23.60;73.90;;;;;;5053728;28;20044;-61
2021/08/22 02:31:21;;;;;;;11.32;5.63;;;23.60;74.10;;;;;;5053595;28;20036;-61
2021/08/22 02:33:47;;;;;;;7.25;5.40;;;23.60;74.10;;;;;;5053447;28;20037;-61
2021/08/22 02:36:14;;;;;;;9.15;5.57;;;23.60;74.10;;;;;;5052786;28;20056;-61
2021/08/22 02:38:41;;;;;;;6.68;5.22;;;23.60;73.90;;;;;;5053153;28;20036;-60
2021/08/22 02:41:07;;;;;;;7.05;5.40;;;23.60;74.00;;;;;;5053029;28;20056;-61
2021/08/22 02:43:34;;;;;;;6.78;5.57;;;23.60;74.40;;;;;;5053088;28;20055;-60
2021/08/22 02:46:00;;;;;;;7.07;6.20;;;23.60;74.20;;;;;;5051705;28;20059;-61
2021/08/22 02:48:27;;;;;;;6.43;4.78;;;23.60;74.20;;;;;;5053067;28;20025;-62
2021/08/22 02:50:53;;;;;;;12.18;6.13;;;23.60;74.30;;;;;;5034438;28;20044;-61
2021/08/22 02:53:20;;;;;;;7.10;5.78;;;23.60;74.20;;;;;;5052210;28;20493;-61
2021/08/22 02:55:46;;;;;;;11.27;5.80;;;23.60;73.30;;;;;;5053061;28;20032;-61
2021/08/22 02:58:13;;;;;;;6.82;5.70;;;23.60;72.20;;;;;;5052990;28;20046;-62
2021/08/22 03:00:40;;;;;;;8.00;5.80;;;23.60;71.70;;;;;;5052782;28;20048;-62
2021/08/22 03:03:06;;;;;;;7.57;5.25;;;23.60;71.10;;;;;;5052904;28;20040;-62
2021/08/22 03:05:32;;;;;;;9.15;5.53;;;23.70;70.80;;;;;;5052574;28;20052;-62
2021/08/22 03:07:59;;;;;;;7.53;6.07;;;23.70;70.40;;;;;;5052610;28;20033;-62
2021/08/22 03:10:25;;;;;;;7.75;5.53;;;23.70;70.20;;;;;;5052983;28;20037;-63
2021/08/22 03:12:53;;;;;;;7.57;5.10;;;23.60;70.30;;;;;;5052774;28;20477;-61
2021/08/22 03:15:19;;;;;;;6.30;4.85;;;23.60;70.20;;;;;;5052636;28;20051;-61
2021/08/22 03:17:46;;;;;;;10.52;5.22;;;23.60;70.00;;;;;;5052483;28;20060;-61
2021/08/22 03:20:13;;;;;;;7.10;5.45;;;23.70;70.10;;;;;;5052781;28;20037;-61
2021/08/22 03:22:46;;;;;;;8.43;5.57;;;23.70;70.10;;;;;;5052212;28;20052;-61
2021/08/22 03:25:14;;;;;;;7.47;5.75;;;23.70;70.10;;;;;;5053180;28;20033;-61
2021/08/22 03:27:40;;;;;;;8.77;5.75;;;23.70;70.10;;;;;;5052533;28;20039;-61
2021/08/22 03:30:07;;;;;;;7.55;5.10;;;23.70;70.40;;;;;;5052422;28;20029;-61
2021/08/22 03:32:34;;;;;;;9.90;6.78;;;23.60;70.80;;;;;;5052690;28;20484;-60
2021/08/22 03:35:00;;;;;;;8.60;5.75;;;23.60;71.00;;;;;;5052256;28;20385;-61
2021/08/22 03:37:27;;;;;;;7.70;5.63;;;23.60;71.40;;;;;;5052711;28;20033;-60
2021/08/22 03:39:53;;;;;;;8.02;5.88;;;23.60;72.40;;;;;;5052487;28;20036;-61
2021/08/22 03:42:20;;;;;;;7.47;5.07;;;23.60;72.50;;;;;;5052333;28;20489;-61
2021/08/22 03:44:46;;;;;;;8.18;5.28;;;23.60;72.30;;;;;;5052378;28;20469;-61
2021/08/22 03:47:13;;;;;;;7.03;5.03;;;23.50;72.10;;;;;;5051619;28;20381;-61
2021/08/22 03:49:39;;;;;;;8.68;6.00;;;23.60;72.20;;;;;;5050732;28;20036;-61
2021/08/22 03:52:06;;;;;;;8.27;5.70;;;23.60;72.20;;;;;;5052264;28;20040;-61
2021/08/22 03:54:32;;;;;;;9.73;5.65;;;23.60;71.90;;;;;;5052343;28;20372;-61
2021/08/22 03:56:59;;;;;;;7.45;5.45;;;23.50;71.90;;;;;;5052424;28;20032;-61
2021/08/22 03:59:25;;;;;;;7.80;5.30;;;23.50;71.90;;;;;;5052543;28;20037;-60
2021/08/22 04:01:52;;;;;;;6.90;5.70;;;23.60;71.90;;;;;;5052914;28;20025;-60
2021/08/22 04:04:37;;;;;;;7.00;5.97;;;23.50;71.90;;;;;;5055378;28;20040;-60
2021/08/22 04:07:04;;;;;;;6.95;5.43;;;23.50;72.20;;;;;;5056032;28;20041;-59
2021/08/22 04:09:31;;;;;;;7.10;5.50;;;23.50;72.40;;;;;;5056632;28;20049;-60
2021/08/22 04:11:58;;;;;;;7.43;5.00;;;23.50;72.40;;;;;;5056233;28;20029;-60
2021/08/22 04:14:25;;;;;;;8.77;5.53;;;23.50;73.10;;;;;;5056458;28;20036;-61
2021/08/22 04:16:52;;;;;;;7.78;6.13;;;23.50;73.40;;;;;;5055540;28;20036;-60
2021/08/22 04:19:18;;;;;;;7.35;5.63;;;23.40;73.50;;;;;;5054905;28;20127;-60
2021/08/22 04:21:45;;;;;;;6.78;6.00;;;23.40;73.70;;;;;;5054343;28;20033;-60
2021/08/22 04:24:11;;;;;;;7.18;5.45;;;23.40;74.00;;;;;;5056156;28;20477;-60
2021/08/22 04:26:39;;;;;;;9.45;6.40;;;23.40;74.20;;;;;;5055708;28;20037;-60
2021/08/22 04:29:08;;;;;;;9.40;7.20;;;23.40;74.10;;;;;;5055927;28;20049;-61
2021/08/22 04:31:34;;;;;;;9.30;6.65;;;23.40;74.10;;;;;;5055822;28;20036;-60
2021/08/22 04:34:01;;;;;;;11.25;7.78;;;23.40;74.20;;;;;;5055857;28;20037;-61
2021/08/22 04:36:27;;;;;;;11.82;8.27;;;23.30;74.20;;;;;;5055618;28;20517;-60
2021/08/22 04:38:54;;;;;;;16.08;9.32;;;23.30;74.20;;;;;;5055360;28;20045;-61
2021/08/22 04:41:21;;;;;;;17.20;10.70;;;23.30;74.20;;;;;;5055559;28;20060;-60
2021/08/22 04:43:47;;;;;;;25.90;14.75;;;23.30;74.30;;;;;;5055369;28;20033;-61
2021/08/22 04:46:14;;;;;;;31.38;19.05;;;23.30;74.60;;;;;;5055742;28;20041;-60
2021/08/22 04:48:40;;;;;;;23.20;15.30;;;23.30;74.40;;;;;;5055260;28;20410;-60
2021/08/22 04:51:07;;;;;;;27.55;16.17;;;23.20;74.20;;;;;;5055791;28;20036;-60
2021/08/22 04:53:34;;;;;;;73.53;39.75;;;23.20;74.20;;;;;;5055178;28;20033;-61
2021/08/22 04:56:00;;;;;;;29.00;18.10;;;23.20;74.60;;;;;;5055594;28;20040;-60
2021/08/22 04:58:27;;;;;;;19.85;12.90;;;23.20;74.60;;;;;;5054862;28;20037;-60
2021/08/22 05:00:54;;;;;;;16.77;10.40;;;23.20;74.40;;;;;;5055109;28;20468;-60
2021/08/22 05:03:20;;;;;;;11.90;8.93;;;23.20;74.50;;;;;;5053931;28;20045;-61
2021/08/22 05:05:47;;;;;;;14.55;8.52;;;23.20;74.70;;;;;;5055226;28;20036;-61
2021/08/22 05:08:13;;;;;;;14.10;7.47;;;23.20;74.80;;;;;;5055193;28;20032;-62
2021/08/22 05:10:40;;;;;;;12.32;7.15;;;23.20;75.00;;;;;;5054858;28;20044;-61
2021/08/22 05:13:06;;;;;;;15.38;9.82;;;23.20;75.00;;;;;;5054530;28;20025;-61
2021/08/22 05:15:33;;;;;;;14.52;10.10;;;23.20;74.70;;;;;;5054890;28;20029;-59
2021/08/22 05:17:59;;;;;;;12.18;8.70;;;23.20;74.70;;;;;;5055235;28;20040;-61
2021/08/22 05:20:26;;;;;;;14.77;9.48;;;23.20;74.80;;;;;;5054631;28;20504;-59
2021/08/22 05:22:52;;;;;;;13.98;9.57;;;23.20;74.80;;;;;;5055095;28;20520;-62
2021/08/22 05:25:19;;;;;;;13.80;10.18;;;23.30;74.90;;;;;;5054650;28;20033;-61
2021/08/22 05:27:45;;;;;;;11.10;8.23;;;23.30;74.60;;;;;;5054670;28;20141;-61
2021/08/22 05:30:12;;;;;;;12.13;8.52;;;23.30;74.20;;;;;;5055172;28;20377;-61
2021/08/22 05:32:38;;;;;;;16.30;9.00;;;23.40;74.40;;;;;;5053748;28;20481;-61
2021/08/22 05:35:05;;;;;;;12.45;8.73;;;23.40;74.90;;;;;;5054329;28;20064;-60
2021/08/22 05:37:31;;;;;;;11.63;8.23;;;23.40;75.30;;;;;;5054466;28;20045;-60
2021/08/22 05:39:58;;;;;;;10.45;6.75;;;23.30;75.20;;;;;;5054348;28;20037;-61
2021/08/22 05:42:24;;;;;;;8.25;6.57;;;23.30;75.80;;;;;;5054158;28;20052;-61
2021/08/22 05:44:51;;;;;;;9.57;6.80;;;23.30;76.00;;;;;;5054574;28;20037;-61
2021/08/22 05:47:21;;;;;;;10.23;7.13;;;23.30;76.30;;;;;;5054134;28;20048;-61
2021/08/22 05:49:48;;;;;;;10.32;6.53;;;23.20;76.50;;;;;;5054436;28;20509;-60
2021/08/22 05:52:15;;;;;;;10.85;6.65;;;23.30;76.80;;;;;;5054084;28;20469;-61
2021/08/22 05:54:41;;;;;;;11.10;6.63;;;23.30;76.80;;;;;;5054171;28;20029;-61
2021/08/22 05:57:09;;;;;;;8.85;6.15;;;23.30;77.00;;;;;;5053338;28;20053;-61
2021/08/22 05:59:35;;;;;;;9.25;5.95;;;23.40;76.80;;;;;;5054637;28;20083;-61
2021/08/22 06:02:02;;;;;;;8.85;6.70;;;23.40;76.80;;;;;;5054503;28;20028;-61
2021/08/22 06:04:30;;;;;;;12.20;6.20;;;23.40;77.00;;;;;;5053496;28;20056;-61
2021/08/22 06:06:56;;;;;;;7.57;6.25;;;23.40;77.20;;;;;;5054050;28;20037;-61
2021/08/22 06:09:23;;;;;;;6.95;5.68;;;23.40;77.60;;;;;;5053594;28;20469;-61
2021/08/22 06:11:50;;;;;;;8.32;6.30;;;23.50;78.10;;;;;;5054180;28;20033;-61
2021/08/22 06:14:17;;;;;;;8.70;6.47;;;23.50;78.00;;;;;;5053688;28;20037;-61
2021/08/22 06:16:43;;;;;;;7.68;6.22;;;23.50;78.40;;;;;;5053698;28;20567;-60
2021/08/22 06:19:09;;;;;;;7.95;6.72;;;23.50;78.90;;;;;;5053870;28;20381;-61
2021/08/22 06:21:37;;;;;;;7.95;6.45;;;23.50;78.60;;;;;;5054102;28;20035;-61
2021/08/22 06:24:04;;;;;;;7.07;5.65;;;23.50;78.70;;;;;;5053511;28;20028;-61
2021/08/22 06:26:31;;;;;;;12.55;6.53;;;23.50;78.70;;;;;;5053808;28;20033;-61
2021/08/22 06:28:57;;;;;;;9.93;6.82;;;23.60;78.70;;;;;;5053312;28;20045;-61
2021/08/22 06:31:23;;;;;;;7.40;6.38;;;23.60;78.70;;;;;;5053779;28;20037;-61
2021/08/22 06:33:50;;;;;;;10.35;6.60;;;23.70;78.80;;;;;;5053888;28;20044;-61
2021/08/22 06:36:17;;;;;;;8.77;6.30;;;23.70;78.70;;;;;;5053433;28;20028;-61
2021/08/22 06:38:43;;;;;;;9.45;6.82;;;23.80;78.20;;;;;;5053005;28;20041;-63
2021/08/22 06:41:10;;;;;;;9.85;6.32;;;23.90;78.70;;;;;;5051814;28;20029;-62
2021/08/22 06:43:36;;;;;;;10.05;6.53;;;24.00;77.80;;;;;;5053838;28;20045;-61
2021/08/22 06:46:02;;;;;;;9.77;6.60;;;24.10;75.10;;;;;;5053071;28;20025;-61
2021/08/22 06:48:29;;;;;;;6.80;5.57;;;24.20;74.00;;;;;;5052861;28;20082;-61
2021/08/22 06:50:55;;;;;;;6.45;5.68;;;24.20;73.00;;;;;;5052982;28;20036;-62
2021/08/22 06:53:22;;;;;;;10.02;6.70;;;24.30;71.70;;;;;;5052969;28;20037;-62
2021/08/22 06:55:48;;;;;;;9.13;5.93;;;24.30;71.00;;;;;;5051842;28;20369;-62
2021/08/22 06:58:15;;;;;;;10.18;6.38;;;24.40;70.00;;;;;;5053134;28;20048;-62
2021/08/22 07:00:41;;;;;;;9.85;6.07;;;24.40;70.60;;;;;;5053168;28;20039;-62
2021/08/22 07:03:08;;;;;;;9.95;5.88;;;24.30;70.40;;;;;;5052996;28;20056;-62
2021/08/22 07:05:34;;;;;;;6.93;5.95;;;24.40;70.60;;;;;;5052544;28;20054;-61
2021/08/22 07:08:01;;;;;;;8.90;5.88;;;24.50;71.60;;;;;;5052591;28;20037;-61
2021/08/22 07:10:27;;;;;;;9.07;5.57;;;24.60;70.60;;;;;;5052578;28;20040;-66
2021/08/22 07:12:54;;;;;;;7.80;6.18;;;24.70;70.40;;;;;;5052079;28;20044;-62
2021/08/22 07:15:20;;;;;;;8.52;6.93;;;24.80;69.80;;;;;;5052271;28;20037;-62
2021/08/22 07:17:47;;;;;;;9.38;6.22;;;24.80;69.70;;;;;;5051962;28;20040;-62
2021/08/22 07:20:13;;;;;;;10.50;6.93;;;24.90;69.70;;;;;;5052626;28;20037;-61
2021/08/22 07:22:40;;;;;;;7.95;6.22;;;25.00;69.30;;;;;;5051955;28;20049;-62
2021/08/22 07:25:07;;;;;;;9.90;6.63;;;25.00;68.90;;;;;;5052771;28;20048;-63
2021/08/22 07:27:33;;;;;;;8.32;6.93;;;25.10;69.20;;;;;;5052046;28;20033;-61
2021/08/22 07:30:00;;;;;;;11.07;6.78;;;25.20;69.30;;;;;;5052395;28;20071;-60
2021/08/22 07:32:26;;;;;;;10.27;7.97;;;25.30;69.70;;;;;;5051024;28;20037;-61
2021/08/22 07:34:53;;;;;;;8.48;7.50;;;25.30;69.80;;;;;;5052324;28;20025;-61
2021/08/22 07:37:19;;;;;;;13.60;8.00;;;25.40;70.00;;;;;;5051861;28;20487;-59
2021/08/22 07:39:46;;;;;;;11.50;7.75;;;25.50;69.40;;;;;;5052216;28;20037;-59
2021/08/22 07:42:12;;;;;;;12.10;7.88;;;25.50;69.60;;;;;;5049970;28;20059;-59
2021/08/22 07:44:39;;;;;;;11.50;8.25;;;25.50;70.00;;;;;;5052168;28;20045;-59
2021/08/22 07:47:05;;;;;;;12.82;8.43;;;25.60;70.60;;;;;;5051784;28;20033;-58
2021/08/22 07:49:31;;;;;;;10.20;8.38;;;25.50;70.70;;;;;;5051856;28;20033;-59
2021/08/22 07:51:58;;;;;;;10.25;8.73;;;25.60;70.50;;;;;;5052308;28;20029;-60
2021/08/22 07:54:24;;;;;;;10.75;9.20;;;25.60;70.40;;;;;;5050738;28;20492;-59
2021/08/22 07:56:51;;;;;;;8.52;7.70;;;25.60;70.70;;;;;;5051975;28;20052;-59
2021/08/22 07:59:18;;;;;;;12.50;8.45;;;25.70;70.00;;;;;;5051906;28;20041;-59
2021/08/22 08:01:44;;;;;;;13.02;7.55;;;25.80;68.90;;;;;;5052447;28;20025;-57
2021/08/22 08:04:10;;;;;;;14.52;8.20;;;25.90;68.30;;;;;;5051750;28;20056;-55
2021/08/22 08:06:37;;;;;;;8.60;7.70;;;25.80;66.60;;;;;;5052624;28;20492;-58
2021/08/22 08:09:04;;;;;;;9.30;8.27;;;25.80;66.60;;;;;;5051820;28;20025;-57
2021/08/22 08:11:31;;;;;;;8.57;7.63;;;25.70;66.20;;;;;;5051942;28;20029;-59
2021/08/22 08:13:59;;;;;;;9.13;7.95;;;25.80;65.50;;;;;;5051935;28;20041;-61
2021/08/22 08:16:26;;;;;;;14.35;7.68;;;25.90;65.30;;;;;;5051687;28;20485;-62
2021/08/22 08:18:52;;;;;;;10.73;7.93;;;26.00;65.00;;;;;;5050550;28;20047;-62
2021/08/22 08:21:19;;;;;;;8.60;7.03;;;26.10;63.90;;;;;;5051794;28;20025;-61
2021/08/22 08:23:46;;;;;;;10.90;7.07;;;26.30;63.40;;;;;;5052175;28;20042;-61
2021/08/22 08:26:12;;;;;;;10.00;6.85;;;26.40;62.70;;;;;;5051377;28;20048;-61
2021/08/22 08:28:40;;;;;;;10.93;7.60;;;26.50;61.60;;;;;;5051892;28;20058;-61
2021/08/22 08:31:06;;;;;;;11.18;6.95;;;26.50;61.10;;;;;;5050899;28;20032;-63
2021/08/22 08:33:33;;;;;;;10.20;6.93;;;26.40;60.10;;;;;;5050392;28;20052;-60
2021/08/22 08:35:59;;;;;;;9.57;7.93;;;26.40;61.00;;;;;;5051917;28;20033;-61
2021/08/22 08:38:26;;;;;;;8.30;6.80;;;26.50;61.60;;;;;;5051753;28;20386;-62
2021/08/22 08:40:53;;;;;;;10.43;7.15;;;26.50;61.30;;;;;;5052023;28;20045;-62
2021/08/22 08:43:22;;;;;;;8.73;7.38;;;26.60;60.80;;;;;;5050556;28;20048;-61
2021/08/22 08:46:00;;;;;;;12.57;9.57;;;26.60;60.60;;;;;;5051148;28;20029;-62
2021/08/22 08:48:53;;;;;;;10.50;7.63;;;26.60;60.70;;;;;;5049109;28;20041;-62
2021/08/22 08:51:28;;;;;;;14.93;13.00;;;26.60;60.90;;;;;;5055114;28;20421;-62
2021/08/22 08:54:00;;;;;;;12.88;10.18;;;26.70;61.10;;;;;;5054853;28;20052;-61
2021/08/22 08:56:34;;;;;;;13.52;10.55;;;26.60;61.10;;;;;;5055387;28;20028;-61
2021/08/22 08:59:00;;;;;;;14.48;10.80;;;26.70;61.10;;;;;;5055295;28;20401;-61
2021/08/22 09:01:26;;;;;;;11.80;8.65;;;26.70;61.30;;;;;;5055740;28;20036;-61
2021/08/22 09:04:15;;;;;;;11.07;8.27;;;26.80;61.00;;;;;;5055145;28;20021;-61
2021/08/22 09:07:12;;;;;;;8.48;7.10;;;27.00;60.50;;;;;;5054901;28;20492;-60
2021/08/22 09:10:16;;;;;;;17.80;7.75;;;26.90;60.10;;;;;;5054629;28;20039;-61
2021/08/22 09:13:20;;;;;;;8.73;7.82;;;27.00;60.40;;;;;;5053614;28;20386;-61
2021/08/22 09:16:11;;;;;;;11.82;6.88;;;27.20;60.80;;;;;;5054203;28;20037;-61
2021/08/22 09:18:59;;;;;;;;;;;27.30;60.70;;;;;;5054937;28;20489;-61
2021/08/22 09:21:56;;;;;;;7.53;6.72;;;27.30;59.90;;;;;;5053557;28;19920;-61
2021/08/22 09:24:31;;;;;;;9.30;7.25;;;27.30;59.90;;;;;;5053069;28;20037;-61
2021/08/22 09:27:35;;;;;;;8.65;6.40;;;27.30;59.50;;;;;;5054079;28;20032;-61
2021/08/22 09:30:21;;;;;;;9.70;6.28;;;27.40;59.90;;;;;;5054460;28;20041;-61
2021/08/22 09:33:06;;;;;;;9.57;6.68;;;27.40;58.70;;;;;;5054617;28;20045;-61
2021/08/22 09:35:54;;;;;;;9.93;8.13;;;27.40;58.10;;;;;;5052957;28;20044;-61
2021/08/22 09:38:23;;;;;;;11.48;7.65;;;27.50;58.90;;;;;;5054560;28;20060;-60
2021/08/22 09:41:07;;;;;;;9.20;7.22;;;27.50;58.60;;;;;;5054697;28;20048;-60
2021/08/22 09:44:11;;;;;;;11.00;7.93;;;27.60;58.90;;;;;;5054763;28;20465;-60
2021/08/22 09:47:15;;;;;;;10.50;8.05;;;27.70;59.10;;;;;;5054558;28;20055;-61
2021/08/22 09:50:07;;;;;;;10.80;8.20;;;27.60;58.80;;;;;;5054304;28;20477;-61
2021/08/22 09:53:12;;;;;;;10.60;7.05;;;27.70;58.70;;;;;;5054418;28;20025;-60
2021/08/22 09:55:38;;;;;;;11.00;6.28;;;27.80;58.40;;;;;;5054178;28;20045;-61
2021/08/22 09:58:24;;;;;;;7.65;6.03;;;27.80;56.80;;;;;;5054268;28;20048;-60
2021/08/22 10:01:38;;;;;;;12.57;6.45;;;27.70;57.60;;;;;;5053848;28;20477;-61
2021/08/22 10:04:33;;;;;;;8.65;6.45;;;27.80;58.00;;;;;;5049235;28;20037;-61
2021/08/22 10:07:02;;;;;;;7.68;6.53;;;27.90;57.20;;;;;;5053857;28;20036;-62
2021/08/22 10:10:00;;;;;;;9.18;6.60;;;27.90;56.70;;;;;;5053781;28;20404;-61
2021/08/22 10:12:27;;;;;;;8.93;6.78;;;27.90;57.50;;;;;;5045447;28;20044;-61
2021/08/22 10:14:54;;;;;;;9.13;6.03;;;27.90;57.40;;;;;;5054196;28;20464;-64
2021/08/22 10:17:26;;;;;;;10.40;6.63;;;28.00;56.80;;;;;;5053841;28;20036;-62
2021/08/22 10:19:53;;;;;;;12.63;6.28;;;28.00;56.00;;;;;;5054052;28;20421;-62
2021/08/22 10:22:34;;;;;;;8.98;6.32;;;28.00;56.10;;;;;;5054053;28;20044;-62
2021/08/22 10:25:04;;;;;;;8.77;6.53;;;28.00;55.30;;;;;;5053294;28;20037;-62
2021/08/22 10:27:30;;;;;;;8.43;6.88;;;28.10;55.50;;;;;;5053427;28;20032;-62
2021/08/22 10:30:03;;;;;;;11.95;7.18;;;28.10;55.30;;;;;;5053288;28;20048;-62
2021/08/22 10:32:54;;;;;;;8.18;6.00;;;28.00;55.70;;;;;;5053348;28;20048;-62
2021/08/22 10:35:21;;;;;;;8.10;5.30;;;28.10;55.60;;;;;;5053960;28;20033;-61
2021/08/22 10:37:48;;;;;;;11.15;7.10;;;28.20;55.70;;;;;;5052812;28;20052;-62
2021/08/22 10:40:23;;;;;;;8.55;6.20;;;28.10;55.00;;;;;;5053010;28;21041;-61
2021/08/22 10:43:05;;;;;;;7.63;6.32;;;28.10;55.20;;;;;;5053437;28;20041;-61
2021/08/22 10:45:52;;;;;;;7.72;6.60;;;28.20;55.10;;;;;;5052964;28;20068;-62
2021/08/22 10:48:24;;;;;;;8.00;5.88;;;28.20;54.30;;;;;;5051581;28;20037;-61
2021/08/22 10:50:57;;;;;;;10.90;6.70;;;28.30;54.40;;;;;;5052895;28;20032;-61
2021/08/22 10:53:27;;;;;;;8.23;6.75;;;28.50;54.30;;;;;;5053078;28;20343;-61
2021/08/22 10:55:55;;;;;;;12.13;6.22;;;28.40;54.60;;;;;;5053265;28;20032;-60
2021/08/22 10:59:01;;;;;;;11.43;8.90;;;28.30;54.20;;;;;;5051430;28;20049;-60
2021/08/22 11:01:29;;;;;;;11.95;7.13;;;28.40;54.00;;;;;;5052736;28;20033;-63
2021/08/22 11:04:09;;;;;;;8.35;6.10;;;28.50;54.20;;;;;;5052938;28;20041;-60
2021/08/22 11:06:37;;;;;;;;;;;28.50;53.60;;;;;;5052412;28;20044;-59
2021/08/22 11:09:04;;;;;;;11.20;7.10;;;28.50;53.70;;;;;;5052125;28;19920;-61
2021/08/22 11:11:30;;;;;;;17.40;15.65;;;28.30;53.60;;;;;;5052259;28;20484;-62
2021/08/22 11:13:59;;;;;;;9.68;8.57;;;28.40;54.60;;;;;;5052702;28;20374;-66
2021/08/22 11:16:40;;;;;;;10.13;7.50;;;28.60;54.60;;;;;;5052777;28;20029;-63
2021/08/22 11:19:07;;;;;;;7.80;6.60;;;28.70;53.90;;;;;;5051537;28;20501;-62
2021/08/22 11:21:34;;;;;;;7.88;7.07;;;28.70;53.60;;;;;;5052683;28;20037;-61
2021/08/22 11:24:01;;;;;;;9.27;6.78;;;28.50;54.00;;;;;;5052132;28;20041;-60
2021/08/22 11:26:29;;;;;;;8.38;7.38;;;28.50;53.90;;;;;;5051467;28;20041;-62
2021/08/22 11:29:00;;;;;;;10.55;6.68;;;28.50;53.90;;;;;;5052164;28;20048;-60
2021/08/22 11:31:29;;;;;;;10.50;8.07;;;28.50;54.30;;;;;;5052401;28;20520;-62
2021/08/22 11:33:56;;;;;;;9.23;6.72;;;28.50;53.90;;;;;;5052278;28;20049;-61
2021/08/22 11:36:29;;;;;;;8.55;7.10;;;28.60;53.90;;;;;;5052295;28;20228;-59
2021/08/22 11:39:16;;;;;;;9.50;7.32;;;28.70;54.10;;;;;;5052144;28;20037;-62
2021/08/22 11:41:47;;;;;;;8.77;7.43;;;28.70;53.90;;;;;;5052371;28;20458;-59
2021/08/22 11:44:22;;;;;;;11.77;7.05;;;28.70;53.80;;;;;;5052208;28;20043;-60
2021/08/22 11:46:52;;;;;;;12.15;7.05;;;28.70;54.00;;;;;;5052353;28;20033;-60
2021/08/22 11:49:19;;;;;;;11.52;7.10;;;28.70;53.50;;;;;;5051423;28;20045;-61
2021/08/22 11:51:51;;;;;;;12.68;7.38;;;28.70;53.90;;;;;;5052116;28;20033;-63
2021/08/22 11:54:18;;;;;;;7.20;6.38;;;28.80;53.60;;;;;;5052465;28;20043;-60
2021/08/22 11:56:45;;;;;;;8.25;6.80;;;28.80;53.80;;;;;;5051969;28;20033;-61
2021/08/22 11:59:28;;;;;;;9.82;7.28;;;28.80;54.10;;;;;;5052259;28;20060;-62
2021/08/22 12:02:22;;;;;;;9.73;6.55;;;28.80;53.90;;;;;;5050764;28;20033;-62
2021/08/22 12:05:15;;;;;;;8.63;7.00;;;28.80;54.10;;;;;;5046053;28;20033;-62
2021/08/22 12:07:43;;;;;;;10.88;6.18;;;28.90;54.00;;;;;;5037397;28;20025;-62
2021/08/22 12:10:21;;;;;;;9.80;6.47;;;29.00;53.70;;;;;;5032002;28;20036;-66
2021/08/22 12:12:48;;;;;;;9.13;7.15;;;29.00;53.60;;;;;;5032069;28;20033;-65
2021/08/22 12:15:15;;;;;;;10.73;7.93;;;29.00;54.10;;;;;;5032307;28;20045;-65
2021/08/22 12:17:41;;;;;;;10.07;7.13;;;29.10;54.00;;;;;;5032209;28;20040;-66
2021/08/22 12:20:22;;;;;;;22.52;18.48;;;29.10;53.50;;;;;;5032232;28;20034;-66
2021/08/22 12:23:27;;;;;;;13.68;8.90;;;29.10;53.50;;;;;;5044350;28;20469;-66
2021/08/22 12:25:54;;;;;;;15.38;9.65;;;29.00;53.70;;;;;;5044819;28;20052;-66
2021/08/22 12:28:23;;;;;;;17.50;13.40;;;29.00;53.70;;;;;;5055593;28;20040;-65
2021/08/22 12:31:06;;;;;;;19.10;15.27;;;29.10;53.40;;;;;;5055907;28;20049;-65
2021/08/22 12:33:34;;;;;;;13.25;10.55;;;29.30;52.90;;;;;;5054955;28;20048;-65
2021/08/22 12:36:16;;;;;;;14.95;11.63;;;29.10;53.00;;;;;;5055380;28;20070;-65
2021/08/22 12:38:44;;;;;;;13.50;9.75;;;29.20;53.00;;;;;;5055358;28;20832;-65
2021/08/22 12:41:28;;;;;;;19.95;13.45;;;29.20;52.60;;;;;;5055692;28;20064;-65
2021/08/22 12:43:57;;;;;;;15.00;10.52;;;29.30;52.90;;;;;;5055424;28;20037;-65
2021/08/22 12:46:29;;;;;;;12.43;9.20;;;29.30;52.60;;;;;;5054040;28;20040;-70
2021/08/22 12:48:56;;;;;;;12.48;9.45;;;29.40;52.40;;;;;;5053854;28;20028;-66
2021/08/22 12:51:23;;;;;;;14.07;8.70;;;29.30;52.60;;;;;;5055809;28;20500;-66
2021/08/22 12:53:50;;;;;;;10.18;8.75;;;29.40;52.50;;;;;;5055397;28;20052;-70
2021/08/22 12:56:17;;;;;;;14.50;8.77;;;29.40;52.60;;;;;;5055411;28;20496;-66
2021/08/22 12:58:45;;;;;;;13.27;8.32;;;29.50;52.00;;;;;;5055041;28;20060;-65
2021/08/22 13:01:11;;;;;;;10.95;8.23;;;29.50;51.30;;;;;;5055192;28;20033;-66